Nanton, Canada
Current Conditions -  °F | °C
As of 7:00 PM on Tuesday 21 Oct 2014 (Local Time) from CYYC Reporting Station
Broken Clouds Broken Clouds  
Wind Chill: 54°   Ceiling: 23000
Heat Index: 54°   Visibility: 30mi
Dew Point: 28°   Wind: 5mph
Humidity: 38%   Direction: 290°WNW
Pressure: 29.72"   Gusts: NA
Location:  50.35°N, 113.77°W
Report Text: CYYC 220100Z 29004KT 30SM FEW060 SCT190 BKN230 12/M02 A2972 RMK SC1AS3CS3 SC TR SLP080 DENSITY ALT 4300FT
Loading
Personal Weather Stations






























Interactive Weather Map
Tropical Storm Tracking
New forecast layout! Learn more

10-Day Weather Forecast

Advertisements
Track Severe Weather on mobile